createdAt,value
2023-05-12T00:01:00.958Z,14.70
2023-05-12T00:03:47.796Z,14.70
2023-05-12T00:06:34.579Z,14.60
2023-05-12T00:09:22.440Z,14.60
2023-05-12T00:12:09.524Z,14.60
2023-05-12T00:14:56.439Z,14.50
2023-05-12T00:17:43.024Z,14.60
2023-05-12T00:20:29.401Z,14.50
2023-05-12T00:23:15.902Z,14.50
2023-05-12T00:26:03.741Z,14.50
2023-05-12T00:28:50.141Z,14.50
2023-05-12T00:31:36.614Z,14.50
2023-05-12T00:34:23.578Z,14.50
2023-05-12T00:37:10.223Z,14.40
2023-05-12T00:39:56.812Z,14.40
2023-05-12T00:42:44.590Z,14.40
2023-05-12T00:45:31.960Z,14.40
2023-05-12T00:48:18.542Z,14.40
2023-05-12T00:51:06.399Z,14.30
2023-05-12T00:53:54.057Z,14.30
2023-05-12T00:56:40.529Z,14.30
2023-05-12T00:59:29.538Z,14.30
2023-05-12T01:02:16.241Z,14.30
2023-05-12T01:05:03.440Z,14.30
2023-05-12T01:07:50.460Z,14.30
2023-05-12T01:10:37.173Z,14.30
2023-05-12T01:13:23.511Z,14.30
2023-05-12T01:16:14.329Z,14.20
2023-05-12T01:19:04.304Z,14.20
2023-05-12T01:21:50.894Z,14.30
2023-05-12T01:24:46.233Z,14.30
2023-05-12T01:27:35.141Z,14.30
2023-05-12T01:30:24.553Z,14.20
2023-05-12T01:33:11.539Z,14.30
2023-05-12T01:35:58.348Z,14.30
2023-05-12T01:38:44.988Z,14.20
2023-05-12T01:41:31.318Z,14.20
2023-05-12T01:44:19.088Z,14.20
2023-05-12T01:47:09.725Z,14.20
2023-05-12T01:49:56.294Z,14.30
2023-05-12T01:52:45.406Z,14.30
2023-05-12T01:55:32.140Z,14.30
2023-05-12T01:58:20.195Z,14.30
2023-05-12T02:01:08.028Z,14.20
2023-05-12T02:03:54.413Z,14.10
2023-05-12T02:06:40.791Z,14.10
2023-05-12T02:09:27.459Z,14.10
2023-05-12T02:12:13.683Z,14.00
2023-05-12T02:15:00.148Z,14.00
2023-05-12T02:17:48.252Z,13.90
2023-05-12T02:20:34.741Z,13.90
2023-05-12T02:23:21.569Z,14.00
2023-05-12T02:26:08.349Z,14.00
2023-05-12T02:28:54.892Z,14.00
2023-05-12T02:31:41.172Z,14.00
2023-05-12T02:34:28.830Z,14.00
2023-05-12T02:37:15.492Z,14.00
2023-05-12T02:40:02.266Z,14.00
2023-05-12T02:42:48.640Z,13.90
2023-05-12T02:45:35.085Z,14.00
2023-05-12T02:48:21.713Z,14.10
2023-05-12T02:51:09.477Z,14.10
2023-05-12T02:53:55.845Z,14.10
2023-05-12T02:56:42.194Z,14.20
2023-05-12T02:59:30.432Z,14.10
2023-05-12T03:02:17.244Z,14.20
2023-05-12T03:05:03.726Z,14.10
2023-05-12T03:07:51.507Z,14.20
2023-05-12T03:10:38.516Z,14.20
2023-05-12T03:13:27.405Z,14.20
2023-05-12T03:16:13.688Z,14.20
2023-05-12T03:19:00.312Z,14.10
2023-05-12T03:21:46.689Z,14.20
2023-05-12T03:24:34.810Z,14.20
2023-05-12T03:27:21.884Z,14.30
2023-05-12T03:30:09.513Z,14.20
2023-05-12T03:32:56.115Z,14.10
2023-05-12T03:35:43.000Z,14.20
2023-05-12T03:38:29.652Z,14.10
2023-05-12T03:41:18.357Z,14.10
2023-05-12T03:44:05.604Z,14.20
2023-05-12T03:46:52.248Z,14.30
2023-05-12T03:49:38.986Z,14.20
2023-05-12T03:52:25.341Z,14.30
2023-05-12T03:55:11.839Z,14.30
2023-05-12T03:57:59.619Z,14.30
2023-05-12T04:00:46.656Z,14.20
2023-05-12T04:03:33.483Z,14.30
2023-05-12T04:06:20.349Z,14.30
2023-05-12T04:09:06.711Z,14.30
2023-05-12T04:11:53.013Z,14.30
2023-05-12T04:14:43.281Z,14.30
2023-05-12T04:17:31.984Z,14.30
2023-05-12T04:20:18.577Z,14.30
2023-05-12T04:23:05.290Z,14.30
2023-05-12T04:25:51.741Z,14.30
2023-05-12T04:28:38.149Z,14.30
2023-05-12T04:31:26.396Z,14.40
2023-05-12T04:34:13.056Z,14.30
2023-05-12T04:36:59.376Z,14.30
2023-05-12T04:39:45.910Z,14.30
2023-05-12T04:42:32.278Z,14.40
2023-05-12T04:45:18.945Z,14.30
2023-05-12T04:48:07.687Z,14.30
2023-05-12T04:50:54.225Z,14.40
2023-05-12T04:53:40.594Z,14.40
2023-05-12T04:56:27.116Z,14.40
2023-05-12T04:59:15.541Z,14.40
2023-05-12T05:02:01.971Z,14.30
2023-05-12T05:04:49.724Z,14.30
2023-05-12T05:07:36.492Z,14.30
2023-05-12T05:10:22.964Z,14.20
2023-05-12T05:13:09.435Z,14.30
2023-05-12T05:15:56.588Z,14.40
2023-05-12T05:18:46.593Z,14.30
2023-05-12T05:21:35.541Z,14.40
2023-05-12T05:24:22.150Z,14.30
2023-05-12T05:27:08.611Z,14.40
2023-05-12T05:29:55.385Z,14.40
2023-05-12T05:32:41.955Z,14.50
2023-05-12T05:35:29.073Z,14.60
2023-05-12T05:38:16.970Z,14.60
2023-05-12T05:41:03.613Z,14.60
2023-05-12T05:43:50.169Z,14.50
2023-05-12T05:46:36.661Z,14.70
2023-05-12T05:49:23.129Z,14.70
2023-05-12T05:52:09.540Z,14.70
2023-05-12T05:54:57.302Z,14.60
2023-05-12T05:57:43.819Z,14.60
2023-05-12T06:00:30.246Z,14.60
2023-05-12T06:03:17.054Z,14.80
2023-05-12T06:06:04.507Z,14.90
2023-05-12T06:08:51.484Z,15.00
2023-05-12T06:11:39.563Z,15.20
2023-05-12T06:14:26.570Z,15.10
2023-05-12T06:17:13.245Z,15.30
2023-05-12T06:19:59.732Z,15.30
2023-05-12T06:22:46.268Z,15.50
2023-05-12T06:25:33.471Z,15.50
2023-05-12T06:28:21.402Z,15.70
2023-05-12T06:31:08.521Z,15.50
2023-05-12T06:33:54.899Z,15.70
2023-05-12T06:36:41.434Z,15.80
2023-05-12T06:39:28.290Z,15.90
2023-05-12T06:42:15.528Z,16.10
2023-05-12T06:45:03.637Z,16.40
2023-05-12T06:47:50.145Z,16.80
2023-05-12T06:50:36.712Z,16.90
2023-05-12T06:53:25.462Z,17.00
2023-05-12T06:56:16.824Z,17.10
2023-05-12T06:59:04.343Z,17.40
2023-05-12T07:01:52.578Z,17.60
2023-05-12T07:04:39.423Z,17.80
2023-05-12T07:07:25.859Z,17.80
2023-05-12T07:10:12.643Z,18.10
2023-05-12T07:12:59.083Z,18.40
2023-05-12T07:15:45.531Z,18.80
2023-05-12T07:18:33.449Z,18.80
2023-05-12T07:21:20.133Z,19.20
2023-05-12T07:24:07.164Z,19.50
2023-05-12T07:26:53.879Z,19.90
2023-05-12T07:29:40.218Z,20.60
2023-05-12T07:32:27.019Z,20.80
2023-05-12T07:35:17.784Z,21.10
2023-05-12T07:38:04.481Z,21.40
2023-05-12T07:40:51.246Z,21.70
2023-05-12T07:43:38.182Z,22.20
2023-05-12T07:46:24.534Z,22.20
2023-05-12T07:49:10.756Z,22.50
2023-05-12T07:51:58.694Z,22.30
2023-05-12T07:54:45.238Z,22.70
2023-05-12T07:57:31.621Z,22.70
2023-05-12T08:00:18.717Z,22.30
2023-05-12T08:03:05.787Z,22.60
2023-05-12T08:05:52.335Z,22.70
2023-05-12T08:08:40.302Z,22.40
2023-05-12T08:11:27.110Z,22.20
2023-05-12T08:14:13.621Z,21.80
2023-05-12T08:17:00.228Z,21.50
2023-05-12T08:19:46.494Z,21.30
2023-05-12T08:22:33.011Z,21.60
2023-05-12T08:25:21.106Z,22.20
2023-05-12T08:28:07.687Z,22.50
2023-05-12T08:30:54.283Z,22.50
2023-05-12T08:33:40.995Z,22.60
2023-05-12T08:36:27.581Z,22.30
2023-05-12T08:39:14.657Z,22.40
2023-05-12T08:42:13.545Z,22.60
2023-05-12T08:45:01.123Z,22.70
2023-05-12T08:47:49.208Z,22.60
2023-05-12T08:50:37.346Z,22.70
2023-05-12T08:53:25.065Z,22.60
2023-05-12T08:59:06.592Z,23.10
2023-05-12T09:01:54.042Z,23.30
2023-05-12T09:04:42.153Z,23.10
2023-05-12T09:07:28.903Z,23.10
2023-05-12T09:10:32.834Z,22.90
2023-05-12T09:13:24.857Z,22.90
2023-05-12T09:16:14.078Z,23.10
2023-05-12T09:19:03.157Z,23.10
2023-05-12T09:21:50.920Z,23.10
2023-05-12T09:24:38.282Z,23.00
2023-05-12T09:27:28.899Z,23.00
2023-05-12T09:30:16.002Z,23.40
2023-05-12T09:33:11.260Z,23.50
2023-05-12T09:36:00.963Z,23.40
2023-05-12T09:38:47.340Z,23.20
2023-05-12T09:41:36.818Z,23.40
2023-05-12T09:44:25.455Z,23.70
2023-05-12T09:47:12.182Z,23.80
2023-05-12T09:49:59.936Z,23.90
2023-05-12T09:52:46.248Z,24.10
2023-05-12T09:55:32.487Z,23.70
2023-05-12T09:58:20.651Z,23.40
2023-05-12T10:01:21.563Z,23.30
2023-05-12T10:04:10.085Z,23.50
2023-05-12T10:06:59.880Z,23.40
2023-05-12T10:09:48.387Z,23.40
2023-05-12T10:12:36.282Z,23.50
2023-05-12T10:15:25.716Z,23.00
2023-05-12T10:18:13.199Z,22.90
2023-05-12T10:21:00.593Z,23.00
2023-05-12T10:23:49.500Z,23.10
2023-05-12T10:26:39.745Z,23.40
2023-05-12T10:29:29.933Z,23.20
2023-05-12T10:32:20.004Z,23.20
2023-05-12T10:35:11.285Z,23.30
2023-05-12T10:37:58.121Z,23.20
2023-05-12T10:40:55.067Z,23.10
2023-05-12T10:43:45.086Z,22.80
2023-05-12T10:46:31.523Z,22.70
2023-05-12T10:49:20.103Z,22.20
2023-05-12T10:52:07.345Z,22.10
2023-05-12T10:55:02.005Z,22.30
2023-05-12T10:57:53.306Z,22.40
2023-05-12T11:00:47.833Z,22.60
2023-05-12T11:06:22.987Z,22.40
2023-05-12T11:09:11.167Z,22.10
2023-05-12T11:11:59.305Z,22.00
2023-05-12T11:14:48.309Z,22.10
2023-05-12T11:17:35.494Z,22.10
2023-05-12T11:20:24.180Z,22.00
2023-05-12T11:23:10.764Z,21.80
2023-05-12T11:25:57.726Z,21.80
2023-05-12T11:28:44.248Z,21.70
2023-05-12T11:31:32.298Z,21.60
2023-05-12T11:34:22.803Z,21.60
2023-05-12T11:37:09.294Z,21.50
2023-05-12T11:39:55.908Z,21.50
2023-05-12T11:42:46.031Z,21.50
2023-05-12T11:45:34.018Z,21.50
2023-05-12T11:48:22.512Z,21.40
2023-05-12T11:51:09.267Z,21.40
2023-05-12T11:53:56.663Z,21.40
2023-05-12T11:56:49.356Z,21.50
2023-05-12T11:59:36.357Z,21.50
2023-05-12T12:02:22.941Z,21.50
2023-05-12T12:05:19.522Z,21.60
2023-05-12T12:08:08.268Z,21.60
2023-05-12T12:10:54.816Z,21.60
2023-05-12T12:13:49.654Z,21.60
2023-05-12T12:16:36.352Z,21.50
2023-05-12T12:19:22.970Z,21.60
2023-05-12T12:22:11.653Z,21.60
2023-05-12T12:24:58.215Z,21.60
2023-05-12T12:27:44.651Z,21.60
2023-05-12T12:30:31.305Z,21.60
2023-05-12T12:33:20.322Z,21.70
2023-05-12T12:36:07.854Z,21.70
2023-05-12T12:38:55.676Z,21.70
2023-05-12T12:41:42.364Z,21.60
2023-05-12T12:44:29.069Z,21.80
2023-05-12T12:47:15.775Z,21.80
2023-05-12T12:50:02.627Z,21.80
2023-05-12T12:52:49.078Z,21.80
2023-05-12T12:55:37.157Z,21.90
2023-05-12T12:58:24.364Z,22.00
2023-05-12T13:01:10.646Z,22.00
2023-05-12T13:03:56.870Z,22.00
2023-05-12T13:06:43.421Z,22.10
2023-05-12T13:09:29.820Z,22.20
2023-05-12T13:12:17.502Z,22.20
2023-05-12T13:15:04.498Z,22.30
2023-05-12T13:17:52.934Z,22.30
2023-05-12T13:20:40.734Z,22.30
2023-05-12T13:23:27.542Z,22.50
2023-05-12T13:26:14.130Z,22.60
2023-05-12T13:29:01.822Z,22.50
2023-05-12T13:31:48.152Z,22.50
2023-05-12T13:34:34.477Z,22.60
2023-05-12T13:37:20.840Z,22.50
2023-05-12T13:40:08.700Z,22.40
2023-05-12T13:42:55.601Z,22.20
2023-05-12T13:45:43.266Z,22.00
2023-05-12T13:48:29.917Z,22.00
2023-05-12T13:51:16.441Z,22.00
2023-05-12T13:54:02.920Z,22.00
2023-05-12T13:56:49.335Z,22.10
2023-05-12T13:59:35.708Z,22.10
2023-05-12T14:02:23.498Z,22.20
2023-05-12T14:05:10.677Z,22.20
2023-05-12T14:07:57.149Z,22.30
2023-05-12T14:10:44.356Z,22.20
2023-05-12T14:13:30.956Z,22.20
2023-05-12T14:16:17.401Z,22.10
2023-05-12T14:19:05.257Z,21.90
2023-05-12T14:21:51.812Z,21.80
2023-05-12T14:24:38.387Z,21.70
2023-05-12T14:27:25.247Z,21.60
2023-05-12T14:30:11.986Z,21.70
2023-05-12T14:32:58.483Z,21.90
2023-05-12T14:35:55.770Z,22.10
2023-05-12T14:38:46.012Z,22.20
2023-05-12T14:41:32.765Z,22.30
2023-05-12T14:44:19.133Z,22.30
2023-05-12T14:47:08.258Z,22.40
2023-05-12T14:49:56.873Z,22.40
2023-05-12T14:52:44.573Z,22.40
2023-05-12T14:55:31.232Z,22.30
2023-05-12T14:58:18.061Z,22.30
2023-05-12T15:01:06.360Z,22.30
2023-05-12T15:03:55.349Z,22.20
2023-05-12T15:06:42.038Z,22.10
2023-05-12T15:09:29.972Z,22.00
2023-05-12T15:12:17.692Z,22.00
2023-05-12T15:15:08.530Z,21.90
2023-05-12T15:17:55.476Z,21.70
2023-05-12T15:20:41.748Z,21.60
2023-05-12T15:23:28.230Z,21.60
2023-05-12T15:26:32.027Z,21.50
2023-05-12T15:29:19.660Z,21.60
2023-05-12T15:32:07.413Z,21.70
2023-05-12T15:34:54.206Z,21.70
2023-05-12T15:37:40.892Z,21.80
2023-05-12T15:40:27.377Z,21.90
2023-05-12T15:43:15.205Z,21.90
2023-05-12T15:46:04.387Z,21.90
2023-05-12T15:48:50.942Z,21.90
2023-05-12T15:51:37.590Z,21.90
2023-05-12T15:54:26.287Z,21.70
2023-05-12T15:57:13.561Z,21.70
2023-05-12T16:00:02.339Z,21.60
2023-05-12T16:02:49.910Z,21.50
2023-05-12T16:05:38.526Z,21.50
2023-05-12T16:08:25.539Z,21.40
2023-05-12T16:11:12.456Z,21.50
2023-05-12T16:13:59.665Z,21.40
2023-05-12T16:16:49.089Z,21.50
2023-05-12T16:19:35.758Z,21.60
2023-05-12T16:22:22.060Z,21.70
2023-05-12T16:25:09.260Z,21.70
2023-05-12T16:27:55.920Z,21.80
2023-05-12T16:30:42.217Z,21.80
2023-05-12T16:33:30.190Z,21.80
2023-05-12T16:36:17.804Z,21.70
2023-05-12T16:39:04.988Z,21.70
2023-05-12T16:41:51.642Z,21.60
2023-05-12T16:44:37.925Z,21.60
2023-05-12T16:47:24.388Z,21.60
2023-05-12T16:50:13.096Z,21.60
2023-05-12T16:52:59.658Z,21.70
2023-05-12T16:55:45.912Z,21.60
2023-05-12T16:58:32.444Z,21.60
2023-05-12T17:01:19.165Z,21.50
2023-05-12T17:04:06.636Z,21.50
2023-05-12T17:06:54.647Z,21.50
2023-05-12T17:09:41.780Z,21.40
2023-05-12T17:12:28.260Z,21.40
2023-05-12T17:15:14.663Z,21.40
2023-05-12T17:18:01.462Z,21.40
2023-05-12T17:20:48.230Z,21.40
2023-05-12T17:23:35.830Z,21.40
2023-05-12T17:26:22.571Z,21.30
2023-05-12T17:29:09.080Z,21.20
2023-05-12T17:31:55.598Z,21.10
2023-05-12T17:34:42.126Z,21.10
2023-05-12T17:37:30.220Z,21.00
2023-05-12T17:40:18.284Z,21.00
2023-05-12T17:43:05.317Z,21.00
2023-05-12T17:45:51.993Z,20.90
2023-05-12T17:48:38.717Z,20.80
2023-05-12T17:51:25.118Z,20.80
2023-05-12T17:54:11.652Z,20.70
2023-05-12T17:56:59.209Z,20.60
2023-05-12T17:59:45.937Z,20.50
2023-05-12T18:02:32.450Z,20.40
2023-05-12T18:05:19.667Z,20.40
2023-05-12T18:08:07.952Z,20.30
2023-05-12T18:10:54.385Z,20.20
2023-05-12T18:13:42.256Z,20.10
2023-05-12T18:16:29.631Z,20.00
2023-05-12T18:19:16.481Z,19.80
2023-05-12T18:22:02.972Z,19.80
2023-05-12T18:24:50.620Z,19.70
2023-05-12T18:27:37.407Z,19.60
2023-05-12T18:30:26.617Z,19.50
2023-05-12T18:33:13.437Z,19.50
2023-05-12T18:36:01.010Z,19.50
2023-05-12T18:38:48.924Z,19.40
2023-05-12T18:41:35.279Z,19.40
2023-05-12T18:44:21.581Z,19.40
2023-05-12T18:47:09.459Z,19.40
2023-05-12T18:49:56.380Z,19.40
2023-05-12T18:52:43.722Z,19.40
2023-05-12T18:55:29.980Z,19.30
2023-05-12T18:58:16.328Z,19.20
2023-05-12T19:01:03.861Z,19.20
2023-05-12T19:03:53.016Z,19.10
2023-05-12T19:06:39.778Z,19.10
2023-05-12T19:09:26.350Z,19.00
2023-05-12T19:12:12.729Z,19.00
2023-05-12T19:14:59.048Z,18.90
2023-05-12T19:17:45.450Z,18.90
2023-05-12T19:20:33.532Z,19.00
2023-05-12T19:23:20.511Z,18.90
2023-05-12T19:26:07.496Z,18.90
2023-05-12T19:28:54.239Z,18.90
2023-05-12T19:31:40.736Z,18.80
2023-05-12T19:34:27.342Z,18.80
2023-05-12T19:37:15.280Z,18.80
2023-05-12T19:40:01.777Z,18.80
2023-05-12T19:42:48.555Z,18.80
2023-05-12T19:45:35.447Z,18.70
2023-05-12T19:48:22.246Z,18.70
2023-05-12T19:51:09.150Z,18.70
2023-05-12T19:53:56.859Z,18.70
2023-05-12T19:56:43.305Z,18.70
2023-05-12T19:59:29.975Z,18.70
2023-05-12T20:02:17.734Z,18.70
2023-05-12T20:05:04.311Z,18.70
2023-05-12T20:07:51.060Z,18.60
2023-05-12T20:10:38.820Z,18.60
2023-05-12T20:13:25.570Z,18.60
2023-05-12T20:16:12.022Z,18.50
2023-05-12T20:19:00.050Z,18.50
2023-05-12T20:21:48.650Z,18.40
2023-05-12T20:24:35.030Z,18.40
2023-05-12T20:27:22.804Z,18.40
2023-05-12T20:30:10.532Z,18.40
2023-05-12T20:32:57.187Z,18.40
2023-05-12T20:35:43.694Z,18.40
2023-05-12T20:38:30.125Z,18.30
2023-05-12T20:41:16.662Z,18.30
2023-05-12T20:44:04.669Z,18.30
2023-05-12T20:46:51.223Z,18.20
2023-05-12T20:49:38.120Z,18.20
2023-05-12T20:52:28.860Z,18.20
2023-05-12T20:55:15.848Z,18.20
2023-05-12T20:58:02.258Z,18.20
2023-05-12T21:00:49.853Z,18.20
2023-05-12T21:03:36.364Z,18.20
2023-05-12T21:06:22.755Z,18.10
2023-05-12T21:09:09.106Z,18.00
2023-05-12T21:11:55.533Z,17.90
2023-05-12T21:14:43.718Z,17.90
2023-05-12T21:17:31.750Z,17.90
2023-05-12T21:20:18.500Z,17.70
2023-05-12T21:23:05.432Z,17.70
2023-05-12T21:25:53.890Z,17.60
2023-05-12T21:28:40.135Z,17.50
2023-05-12T21:31:28.378Z,17.40
2023-05-12T21:34:16.624Z,17.40
2023-05-12T21:37:03.146Z,17.30
2023-05-12T21:39:49.611Z,17.20
2023-05-12T21:42:35.987Z,17.20
2023-05-12T21:45:22.360Z,17.10
2023-05-12T21:48:08.784Z,17.00
2023-05-12T21:51:00.818Z,16.90
2023-05-12T21:53:47.217Z,16.80
2023-05-12T21:56:34.303Z,16.60
2023-05-12T21:59:20.700Z,16.60
2023-05-12T22:02:07.272Z,16.50
2023-05-12T22:04:53.836Z,16.40
2023-05-12T22:07:41.931Z,16.40
2023-05-12T22:10:31.372Z,16.30
2023-05-12T22:13:18.974Z,16.20
2023-05-12T22:16:05.719Z,16.10
2023-05-12T22:18:52.768Z,16.10
2023-05-12T22:21:39.796Z,16.00
2023-05-12T22:24:27.512Z,16.00
2023-05-12T22:27:14.221Z,16.00
2023-05-12T22:30:00.608Z,16.00
2023-05-12T22:32:46.972Z,16.00
2023-05-12T22:35:33.474Z,15.90
2023-05-12T22:38:19.926Z,16.00
2023-05-12T22:41:07.712Z,15.90
2023-05-12T22:43:54.279Z,15.90
2023-05-12T22:46:40.554Z,15.80
2023-05-12T22:49:26.783Z,15.80
2023-05-12T22:52:13.206Z,15.80
2023-05-12T22:54:59.700Z,15.80
2023-05-12T22:57:47.299Z,15.80
2023-05-12T23:00:33.706Z,15.90
2023-05-12T23:03:21.322Z,15.90
2023-05-12T23:06:08.402Z,15.90
2023-05-12T23:08:56.397Z,15.90
2023-05-12T23:11:43.196Z,15.90
2023-05-12T23:14:30.953Z,15.90
2023-05-12T23:17:17.685Z,15.90
2023-05-12T23:20:04.720Z,15.80
2023-05-12T23:22:51.396Z,15.80
2023-05-12T23:25:38.690Z,15.70
2023-05-12T23:28:25.401Z,15.70
2023-05-12T23:31:13.139Z,15.70
2023-05-12T23:33:59.797Z,15.60
2023-05-12T23:36:46.182Z,15.60
2023-05-12T23:39:32.783Z,15.60
2023-05-12T23:42:19.120Z,15.50
2023-05-12T23:45:06.421Z,15.60
2023-05-12T23:47:54.331Z,15.60
2023-05-12T23:50:40.996Z,15.60
2023-05-12T23:53:27.262Z,15.40
2023-05-12T23:56:13.635Z,15.40
2023-05-12T23:59:00.423Z,15.30
